createdAt,value
2019-04-26T00:02:03.158Z,6.40
2019-04-26T00:04:34.031Z,9.57
2019-04-26T00:07:04.846Z,7.67
2019-04-26T00:09:38.386Z,5.63
2019-04-26T00:12:26.146Z,5.73
2019-04-26T00:15:18.767Z,4.80
2019-04-26T00:17:52.869Z,8.43
2019-04-26T00:20:23.299Z,5.20
2019-04-26T00:22:55.055Z,3.87
2019-04-26T00:25:25.478Z,6.27
2019-04-26T00:27:55.983Z,4.80
2019-04-26T00:30:26.441Z,5.97
2019-04-26T00:32:56.930Z,9.50
2019-04-26T00:35:27.573Z,7.50
2019-04-26T00:37:58.138Z,4.47
2019-04-26T00:40:28.669Z,9.37
2019-04-26T00:43:00.599Z,6.03
2019-04-26T00:45:34.031Z,7.37
2019-04-26T00:48:05.522Z,6.80
2019-04-26T00:50:37.182Z,4.83
2019-04-26T00:53:09.638Z,3.23
2019-04-26T00:55:40.448Z,6.77
2019-04-26T00:58:11.414Z,9.43
2019-04-26T01:00:43.041Z,5.00
2019-04-26T01:03:15.210Z,5.40
2019-04-26T01:05:45.627Z,11.80
2019-04-26T01:08:17.029Z,8.43
2019-04-26T01:10:47.915Z,11.63
2019-04-26T01:13:18.349Z,6.60
2019-04-26T01:15:48.880Z,10.97
2019-04-26T01:18:20.129Z,6.70
2019-04-26T01:20:53.730Z,6.80
2019-04-26T01:23:27.251Z,9.47
2019-04-26T01:26:07.641Z,9.23
2019-04-26T01:28:45.903Z,4.50
2019-04-26T01:31:18.493Z,8.97
2019-04-26T01:33:49.621Z,8.47
2019-04-26T01:36:20.547Z,8.57
2019-04-26T01:38:53.815Z,8.93
2019-04-26T01:41:33.949Z,6.07
2019-04-26T01:44:24.630Z,12.63
2019-04-26T01:46:56.335Z,8.67
2019-04-26T01:49:26.886Z,5.27
2019-04-26T01:52:03.679Z,4.90
2019-04-26T01:54:39.833Z,8.27
2019-04-26T01:57:10.464Z,7.73
2019-04-26T01:59:45.750Z,7.43
2019-04-26T02:02:23.770Z,8.97
2019-04-26T02:04:57.283Z,5.90
2019-04-26T02:07:41.049Z,9.90
2019-04-26T02:10:15.205Z,5.73
2019-04-26T02:12:48.401Z,5.67
2019-04-26T02:15:23.010Z,11.30
2019-04-26T02:17:56.695Z,7.23
2019-04-26T02:20:52.519Z,6.33
2019-04-26T02:23:37.175Z,14.53
2019-04-26T02:26:26.646Z,8.97
2019-04-26T02:28:57.263Z,7.50
2019-04-26T02:31:31.464Z,7.13
2019-04-26T02:34:04.237Z,6.27
2019-04-26T02:36:55.162Z,9.57
2019-04-26T02:39:19.448Z,7.03
2019-04-26T02:41:53.173Z,12.27
2019-04-26T02:44:29.077Z,7.23
2019-04-26T02:47:22.896Z,14.43
2019-04-26T02:49:57.111Z,11.40
2019-04-26T02:52:45.460Z,10.43
2019-04-26T02:55:36.959Z,9.33
2019-04-26T02:58:05.780Z,18.97
2019-04-26T03:00:37.743Z,14.80
2019-04-26T03:03:10.576Z,10.03
2019-04-26T03:05:43.575Z,4.63
2019-04-26T03:08:23.536Z,5.23
2019-04-26T03:11:11.188Z,4.57
2019-04-26T03:13:59.841Z,7.47
2019-04-26T03:16:49.314Z,7.83
2019-04-26T03:19:36.240Z,11.80
2019-04-26T03:22:34.901Z,9.50
2019-04-26T03:25:22.243Z,7.37
2019-04-26T03:28:10.074Z,8.00
2019-04-26T03:30:54.738Z,10.80
2019-04-26T03:33:53.104Z,12.53
2019-04-26T03:37:01.333Z,13.53
2019-04-26T03:39:46.203Z,7.57
2019-04-26T03:42:35.075Z,9.07
2019-04-26T03:45:29.320Z,12.00
2019-04-26T03:48:08.992Z,14.27
2019-04-26T03:50:47.318Z,8.03
2019-04-26T03:53:27.045Z,16.00
2019-04-26T03:56:39.832Z,15.00
2019-04-26T03:59:59.033Z,15.63
2019-04-26T04:02:58.567Z,18.10
2019-04-26T04:05:40.117Z,23.03
2019-04-26T04:08:14.051Z,18.37
2019-04-26T04:10:47.666Z,12.03
2019-04-26T04:13:39.022Z,15.43
2019-04-26T04:16:13.419Z,17.37
2019-04-26T04:18:47.629Z,22.30
2019-04-26T04:21:48.637Z,16.63
2019-04-26T04:24:29.723Z,13.50
2019-04-26T04:27:31.889Z,12.43
2019-04-26T04:30:33.852Z,15.17
2019-04-26T04:33:40.728Z,15.97
2019-04-26T04:36:26.594Z,15.47
2019-04-26T04:39:24.566Z,18.47
2019-04-26T04:42:25.597Z,14.63
2019-04-26T04:45:24.843Z,12.40
2019-04-26T04:48:27.019Z,17.00
2019-04-26T04:51:27.255Z,17.60
2019-04-26T04:54:19.421Z,17.80
2019-04-26T04:57:25.337Z,11.53
2019-04-26T05:00:45.736Z,12.10
2019-04-26T05:03:39.208Z,13.37
2019-04-26T05:06:47.767Z,14.83
2019-04-26T05:09:31.767Z,14.50
2019-04-26T05:12:20.117Z,16.03
2019-04-26T05:15:10.717Z,28.07
2019-04-26T05:18:11.120Z,17.63
2019-04-26T05:20:53.338Z,19.33
2019-04-26T05:23:55.186Z,22.83
2019-04-26T05:27:29.642Z,19.13
2019-04-26T05:31:15.322Z,17.43
2019-04-26T05:34:22.216Z,22.97
2019-04-26T05:37:33.497Z,14.20
2019-04-26T05:40:26.351Z,14.50
2019-04-26T05:43:39.281Z,46.20
2019-04-26T05:47:06.843Z,49.37
2019-04-26T05:50:37.276Z,38.17
2019-04-26T05:53:48.710Z,22.97
2019-04-26T05:56:42.745Z,14.13
2019-04-26T05:59:30.173Z,15.50
2019-04-26T06:02:59.682Z,15.67
2019-04-26T06:06:17.716Z,15.83
2019-04-26T06:09:48.060Z,13.87
2019-04-26T06:12:54.739Z,12.47
2019-04-26T06:15:52.775Z,7.97
2019-04-26T06:18:55.227Z,13.30
2019-04-26T06:22:00.044Z,10.77
2019-04-26T06:24:52.671Z,11.73
2019-04-26T06:27:56.258Z,8.53
2019-04-26T06:30:48.889Z,9.43
2019-04-26T06:33:35.122Z,8.23
2019-04-26T06:36:13.846Z,9.67
2019-04-26T06:39:12.231Z,9.23
2019-04-26T06:42:29.858Z,7.70
2019-04-26T06:45:28.956Z,9.70
2019-04-26T06:48:08.905Z,17.13
2019-04-26T06:50:46.704Z,9.67
2019-04-26T06:53:52.562Z,7.57
2019-04-26T06:57:26.629Z,12.80
2019-04-26T07:00:23.434Z,14.73
2019-04-26T07:03:24.268Z,10.27
2019-04-26T07:06:00.284Z,11.77
2019-04-26T07:08:43.042Z,6.20
2019-04-26T07:11:36.458Z,11.73
2019-04-26T07:14:20.862Z,6.83
2019-04-26T07:17:07.943Z,9.17
2019-04-26T07:20:29.817Z,4.60
2019-04-26T07:24:03.867Z,4.73
2019-04-26T07:27:05.588Z,8.50
2019-04-26T07:30:12.575Z,5.47
2019-04-26T07:33:22.690Z,3.43
2019-04-26T07:36:24.804Z,5.30
2019-04-26T07:39:23.394Z,5.50
2019-04-26T07:42:59.242Z,5.13
2019-04-26T07:45:54.506Z,4.83
2019-04-26T07:48:56.838Z,6.13
2019-04-26T07:52:06.323Z,4.10
2019-04-26T07:55:16.129Z,5.20
2019-04-26T07:58:09.291Z,7.17
2019-04-26T08:00:52.211Z,7.17
2019-04-26T08:03:39.286Z,3.00
2019-04-26T08:06:20.558Z,4.37
2019-04-26T08:08:59.946Z,5.00
2019-04-26T08:11:36.743Z,4.97
2019-04-26T08:14:39.562Z,3.58
2019-04-26T08:17:31.953Z,6.33
2019-04-26T08:20:16.641Z,3.22
2019-04-26T08:22:52.236Z,6.92
2019-04-26T08:25:25.247Z,3.90
2019-04-26T08:27:58.669Z,2.70
2019-04-26T08:30:31.861Z,4.00
2019-04-26T08:33:07.501Z,3.12
2019-04-26T08:35:38.698Z,3.75
2019-04-26T08:38:15.945Z,2.60
2019-04-26T08:40:43.420Z,2.27
2019-04-26T08:43:30.783Z,4.47
2019-04-26T08:46:28.315Z,5.10
2019-04-26T08:49:06.461Z,3.90
2019-04-26T08:51:38.478Z,4.37
2019-04-26T08:54:32.528Z,3.77
2019-04-26T08:57:11.849Z,4.30
2019-04-26T08:59:49.207Z,3.90
2019-04-26T09:02:54.279Z,5.60
2019-04-26T09:05:49.863Z,4.90
2019-04-26T09:08:21.467Z,4.13
2019-04-26T09:10:54.803Z,5.87
2019-04-26T09:13:29.142Z,2.53
2019-04-26T09:16:28.026Z,4.20
2019-04-26T09:18:59.679Z,2.27
2019-04-26T09:21:38.994Z,5.70
2019-04-26T09:24:25.118Z,5.67
2019-04-26T09:27:01.408Z,3.85
2019-04-26T09:29:39.209Z,4.53
2019-04-26T09:32:15.985Z,3.42
2019-04-26T09:34:47.011Z,3.57
2019-04-26T09:37:17.864Z,5.95
2019-04-26T09:39:48.487Z,1.40
2019-04-26T09:42:29.365Z,2.73
2019-04-26T09:45:07.473Z,2.93
2019-04-26T09:47:43.942Z,2.70
2019-04-26T09:50:39.562Z,2.03
2019-04-26T09:53:10.110Z,3.03
2019-04-26T09:55:40.582Z,3.83
2019-04-26T09:58:11.043Z,3.10
2019-04-26T10:00:44.096Z,5.00
2019-04-26T10:03:14.765Z,2.77
2019-04-26T10:05:45.195Z,2.02
2019-04-26T10:08:15.671Z,2.02
2019-04-26T10:10:46.251Z,1.32
2019-04-26T10:13:44.737Z,1.82
2019-04-26T10:16:33.581Z,2.87
2019-04-26T10:19:12.010Z,3.77
2019-04-26T10:21:42.621Z,4.78
2019-04-26T10:24:13.072Z,4.05
2019-04-26T10:26:43.486Z,3.15
2019-04-26T10:29:13.923Z,2.50
2019-04-26T10:31:47.539Z,3.45
2019-04-26T10:34:16.435Z,5.45
2019-04-26T10:36:46.841Z,3.50
2019-04-26T10:39:19.263Z,3.08
2019-04-26T10:41:50.822Z,3.25
2019-04-26T10:44:22.532Z,5.42
2019-04-26T10:46:55.749Z,3.17
2019-04-26T10:49:48.851Z,3.93
2019-04-26T10:52:42.349Z,4.00
2019-04-26T10:55:35.000Z,5.67
2019-04-26T10:58:15.052Z,2.27
2019-04-26T11:00:48.477Z,3.40
2019-04-26T11:03:18.671Z,4.60
2019-04-26T11:05:53.491Z,6.20
2019-04-26T11:08:21.658Z,5.50
2019-04-26T11:10:52.422Z,5.17
2019-04-26T11:13:22.834Z,5.22
2019-04-26T11:15:53.258Z,5.57
2019-04-26T11:18:27.592Z,6.00
2019-04-26T11:20:55.959Z,3.30
2019-04-26T11:23:26.475Z,5.83
2019-04-26T11:25:57.891Z,2.87
2019-04-26T11:28:28.975Z,4.42
2019-04-26T11:30:59.509Z,5.00
2019-04-26T11:33:30.035Z,6.12
2019-04-26T11:36:03.331Z,3.50
2019-04-26T11:38:32.928Z,1.77
2019-04-26T11:41:06.226Z,3.27
2019-04-26T11:43:35.635Z,2.77
2019-04-26T11:46:06.166Z,1.57
2019-04-26T11:48:36.589Z,2.02
2019-04-26T11:51:07.022Z,3.07
2019-04-26T11:53:40.444Z,3.80
2019-04-26T11:56:09.557Z,6.17
2019-04-26T11:58:40.106Z,6.10
2019-04-26T12:01:12.213Z,6.57
2019-04-26T12:03:48.433Z,6.53
2019-04-26T12:06:36.922Z,3.47
2019-04-26T12:09:19.627Z,7.83
2019-04-26T12:12:03.710Z,5.17
2019-04-26T12:14:22.131Z,6.10
2019-04-26T12:16:58.894Z,9.20
2019-04-26T12:19:25.646Z,9.77
2019-04-26T12:21:56.076Z,8.90
2019-04-26T12:24:29.989Z,7.47
2019-04-26T12:26:59.935Z,6.53
2019-04-26T12:29:30.739Z,6.80
2019-04-26T12:32:01.444Z,3.77
2019-04-26T12:34:31.998Z,5.70
2019-04-26T12:37:02.423Z,8.77
2019-04-26T12:39:36.760Z,6.23
2019-04-26T12:42:08.194Z,10.70
2019-04-26T12:44:46.917Z,5.57
2019-04-26T12:47:21.764Z,8.13
2019-04-26T12:49:54.582Z,5.70
2019-04-26T12:52:24.503Z,7.70
2019-04-26T12:54:57.575Z,8.33
2019-04-26T12:57:27.110Z,6.67
2019-04-26T13:00:01.820Z,6.87
2019-04-26T13:02:29.961Z,6.60
2019-04-26T13:05:00.365Z,3.83
2019-04-26T13:07:31.004Z,8.63
2019-04-26T13:10:36.794Z,7.63
2019-04-26T13:13:18.199Z,7.80
2019-04-26T13:16:08.120Z,5.17
2019-04-26T13:18:41.118Z,5.80
2019-04-26T13:21:10.716Z,3.63
2019-04-26T13:23:41.146Z,3.37
2019-04-26T13:26:11.569Z,5.17
2019-04-26T13:28:42.165Z,6.80
2019-04-26T13:31:12.635Z,3.60
2019-04-26T13:33:42.911Z,5.27
2019-04-26T13:36:13.482Z,7.00
2019-04-26T13:38:45.188Z,6.63
2019-04-26T13:41:15.788Z,5.03
2019-04-26T13:43:46.199Z,5.63
2019-04-26T13:46:41.815Z,2.77
2019-04-26T13:49:30.061Z,5.03
2019-04-26T13:52:00.539Z,3.00
2019-04-26T13:54:31.123Z,2.63
2019-04-26T13:57:01.596Z,6.80
2019-04-26T13:59:32.821Z,3.93
2019-04-26T14:02:11.460Z,6.70
2019-04-26T14:04:37.252Z,6.07
2019-04-26T14:07:07.770Z,4.50
2019-04-26T14:09:39.516Z,8.60
2019-04-26T14:12:18.393Z,3.90
2019-04-26T14:14:41.880Z,4.57
2019-04-26T14:17:12.539Z,5.67
2019-04-26T14:19:45.301Z,6.90
2019-04-26T14:22:17.081Z,6.20
2019-04-26T14:25:11.256Z,8.77
2019-04-26T14:27:51.200Z,7.30
2019-04-26T14:30:22.348Z,8.63
2019-04-26T14:32:53.247Z,7.17
2019-04-26T14:35:24.853Z,4.77
2019-04-26T14:38:27.110Z,5.07
2019-04-26T14:40:47.448Z,7.73
2019-04-26T14:43:18.412Z,7.47
2019-04-26T14:45:55.974Z,7.73
2019-04-26T14:48:35.119Z,7.53
2019-04-26T14:51:07.226Z,6.37
2019-04-26T14:53:26.613Z,7.53
2019-04-26T14:55:57.122Z,11.83
2019-04-26T14:58:30.089Z,9.70
2019-04-26T15:01:03.141Z,9.30
2019-04-26T15:03:38.470Z,8.87
2019-04-26T15:06:33.670Z,6.90
2019-04-26T15:09:16.829Z,12.87
2019-04-26T15:11:37.164Z,7.37
2019-04-26T15:14:07.611Z,9.17
2019-04-26T15:16:41.489Z,9.60
2019-04-26T15:19:12.594Z,9.03
2019-04-26T15:21:42.372Z,10.60
2019-04-26T15:24:12.908Z,11.30
2019-04-26T15:26:43.329Z,9.50
2019-04-26T15:29:14.781Z,10.73
2019-04-26T15:31:45.256Z,9.77
2019-04-26T15:34:19.267Z,11.67
2019-04-26T15:36:49.256Z,10.87
2019-04-26T15:39:30.067Z,10.87
2019-04-26T15:42:18.556Z,10.67
2019-04-26T15:45:03.510Z,13.10
2019-04-26T15:48:05.389Z,10.40
2019-04-26T15:50:50.238Z,7.93
2019-04-26T15:53:14.770Z,9.37
2019-04-26T15:55:45.463Z,6.17
2019-04-26T15:58:15.905Z,11.43
2019-04-26T16:00:46.638Z,12.43
2019-04-26T16:03:17.111Z,4.80
2019-04-26T16:05:47.594Z,10.30
2019-04-26T16:08:18.024Z,7.57
2019-04-26T16:10:49.679Z,9.47
2019-04-26T16:13:24.120Z,6.60
2019-04-26T16:15:54.729Z,9.20
2019-04-26T16:18:25.157Z,6.10
2019-04-26T16:20:56.912Z,9.10
2019-04-26T16:23:38.358Z,6.20
2019-04-26T16:25:59.616Z,8.63
2019-04-26T16:28:48.943Z,10.07
2019-04-26T16:31:47.672Z,14.03
2019-04-26T16:34:19.181Z,5.40
2019-04-26T16:36:49.642Z,5.20
2019-04-26T16:39:20.083Z,6.20
2019-04-26T16:41:51.882Z,4.67
2019-04-26T16:44:29.376Z,10.83
2019-04-26T16:47:01.427Z,6.53
2019-04-26T16:49:28.434Z,4.13
2019-04-26T16:52:03.095Z,5.10
2019-04-26T16:54:30.935Z,8.13
2019-04-26T16:57:06.803Z,5.53
2019-04-26T16:59:34.452Z,7.13
2019-04-26T17:02:05.176Z,4.23
2019-04-26T17:04:36.399Z,6.03
2019-04-26T17:07:06.965Z,10.20
2019-04-26T17:09:55.765Z,6.17
2019-04-26T17:12:10.460Z,5.13
2019-04-26T17:14:47.675Z,7.70
2019-04-26T17:17:14.222Z,7.33
2019-04-26T17:19:44.735Z,8.87
2019-04-26T17:22:55.802Z,6.20
2019-04-26T17:25:38.424Z,10.17
2019-04-26T17:28:08.849Z,8.80
2019-04-26T17:30:42.495Z,9.37
2019-04-26T17:33:13.022Z,7.87
2019-04-26T17:35:44.029Z,9.60
2019-04-26T17:38:14.449Z,9.00
2019-04-26T17:41:06.443Z,9.27
2019-04-26T17:43:42.210Z,7.17
2019-04-26T17:46:14.625Z,10.37
2019-04-26T17:48:49.146Z,6.23
2019-04-26T17:51:19.178Z,7.83
2019-04-26T17:53:58.813Z,13.20
2019-04-26T17:56:26.118Z,11.50
2019-04-26T17:59:09.119Z,7.17
2019-04-26T18:01:45.366Z,8.17
2019-04-26T18:04:11.967Z,14.20
2019-04-26T18:06:47.370Z,14.33
2019-04-26T18:09:38.172Z,11.07
2019-04-26T18:11:46.945Z,7.67
2019-04-26T18:14:21.650Z,8.13
2019-04-26T18:16:57.134Z,8.00
2019-04-26T18:19:47.766Z,8.37
2019-04-26T18:22:40.355Z,13.67
2019-04-26T18:25:12.648Z,7.60
2019-04-26T18:27:43.511Z,10.50
2019-04-26T18:30:14.609Z,6.67
2019-04-26T18:32:47.756Z,13.10
2019-04-26T18:35:17.407Z,9.40
2019-04-26T18:37:47.891Z,10.43
2019-04-26T18:40:20.565Z,11.23
2019-04-26T18:42:50.618Z,10.87
2019-04-26T18:45:25.577Z,8.17
2019-04-26T18:47:54.801Z,15.13
2019-04-26T18:50:46.030Z,13.53
2019-04-26T18:53:36.627Z,10.63
2019-04-26T18:56:06.595Z,13.53
2019-04-26T18:58:38.025Z,10.47
2019-04-26T19:01:10.521Z,7.93
2019-04-26T19:03:41.048Z,9.67
2019-04-26T19:06:11.474Z,14.93
2019-04-26T19:08:47.674Z,8.20
2019-04-26T19:11:14.283Z,9.10
2019-04-26T19:14:15.769Z,10.40
2019-04-26T19:17:11.960Z,14.13
2019-04-26T19:20:01.984Z,12.17
2019-04-26T19:22:34.518Z,15.83
2019-04-26T19:25:05.033Z,9.83
2019-04-26T19:27:47.120Z,11.80
2019-04-26T19:30:10.603Z,10.27
2019-04-26T19:32:41.155Z,12.63
2019-04-26T19:35:14.303Z,6.10
2019-04-26T19:37:43.640Z,12.53
2019-04-26T19:40:14.645Z,10.97
2019-04-26T19:42:45.119Z,9.70
2019-04-26T19:45:47.013Z,9.47
2019-04-26T19:48:23.625Z,11.07
2019-04-26T19:51:03.293Z,9.13
2019-04-26T19:53:51.748Z,10.07
2019-04-26T19:56:28.621Z,10.00
2019-04-26T19:58:59.058Z,3.90
2019-04-26T20:01:29.676Z,7.20
2019-04-26T20:04:00.309Z,4.87
2019-04-26T20:06:32.255Z,6.30
2019-04-26T20:09:02.907Z,4.50
2019-04-26T20:11:36.198Z,4.97
2019-04-26T20:14:06.790Z,8.57
2019-04-26T20:16:40.776Z,4.80
2019-04-26T20:19:14.930Z,6.73
2019-04-26T20:21:45.515Z,2.20
2019-04-26T20:24:18.401Z,3.87
2019-04-26T20:26:48.650Z,1.93
2019-04-26T20:29:19.336Z,5.80
2019-04-26T20:32:21.131Z,4.37
2019-04-26T20:35:07.182Z,2.10
2019-04-26T20:37:37.715Z,3.57
2019-04-26T20:40:17.965Z,4.90
2019-04-26T20:42:42.244Z,3.87
2019-04-26T20:45:16.624Z,3.10
2019-04-26T20:47:46.670Z,6.03
2019-04-26T20:50:17.834Z,3.70
2019-04-26T20:52:48.258Z,2.97
2019-04-26T20:55:22.705Z,5.20
2019-04-26T20:57:51.969Z,4.93
2019-04-26T21:00:24.557Z,4.33
2019-04-26T21:03:01.496Z,2.47
2019-04-26T21:05:27.150Z,3.07
2019-04-26T21:07:57.579Z,6.23
2019-04-26T21:10:28.234Z,2.70
2019-04-26T21:12:58.796Z,1.97
2019-04-26T21:15:29.435Z,2.80
2019-04-26T21:18:02.668Z,1.70
2019-04-26T21:20:36.091Z,2.27
2019-04-26T21:23:04.142Z,1.90
2019-04-26T21:26:16.195Z,2.00
2019-04-26T21:29:03.314Z,1.00
2019-04-26T21:31:59.423Z,1.20
2019-04-26T21:34:34.695Z,2.27
2019-04-26T21:37:27.582Z,1.17
2019-04-26T21:40:03.950Z,3.97
2019-04-26T21:42:34.476Z,1.67
2019-04-26T21:45:06.951Z,1.00
2019-04-26T21:47:37.560Z,1.10
2019-04-26T21:50:08.416Z,2.20
2019-04-26T21:52:38.845Z,2.83
2019-04-26T21:55:09.578Z,1.07
2019-04-26T21:57:40.011Z,1.40
2019-04-26T22:00:34.466Z,1.40
2019-04-26T22:03:07.928Z,0.93
2019-04-26T22:05:37.195Z,1.97
2019-04-26T22:08:07.724Z,1.97
2019-04-26T22:10:43.720Z,2.27
2019-04-26T22:13:23.051Z,1.33
2019-04-26T22:16:09.469Z,2.33
2019-04-26T22:18:56.563Z,4.27
2019-04-26T22:21:32.083Z,12.13
2019-04-26T22:24:09.577Z,18.63
2019-04-26T22:26:44.365Z,17.37
2019-04-26T22:29:16.557Z,22.27
2019-04-26T22:31:44.439Z,28.43
2019-04-26T22:34:15.994Z,22.43
2019-04-26T22:36:46.440Z,24.73
2019-04-26T22:39:20.218Z,41.13
2019-04-26T22:41:50.658Z,27.40
2019-04-26T22:44:34.386Z,22.00
2019-04-26T22:47:33.942Z,30.27
2019-04-26T22:50:04.026Z,32.63
2019-04-26T22:52:34.449Z,30.53
2019-04-26T22:55:06.050Z,23.37
2019-04-26T22:57:36.532Z,34.93
2019-04-26T23:00:08.905Z,28.57
2019-04-26T23:02:39.333Z,27.87
2019-04-26T23:05:09.761Z,39.63
2019-04-26T23:07:40.391Z,28.97
2019-04-26T23:10:13.034Z,26.93
2019-04-26T23:13:13.246Z,35.27
2019-04-26T23:16:14.956Z,33.77
2019-04-26T23:19:03.739Z,19.30
2019-04-26T23:21:37.724Z,30.37
2019-04-26T23:24:11.528Z,40.43
2019-04-26T23:26:41.633Z,20.77
2019-04-26T23:29:17.536Z,30.77
2019-04-26T23:31:44.729Z,22.70
2019-04-26T23:34:15.192Z,27.47
2019-04-26T23:36:49.144Z,27.80
2019-04-26T23:39:17.871Z,21.00
2019-04-26T23:41:47.392Z,24.53
2019-04-26T23:44:16.856Z,20.43
2019-04-26T23:46:47.362Z,28.43
2019-04-26T23:49:19.282Z,22.63
2019-04-26T23:51:50.011Z,31.07
2019-04-26T23:54:20.436Z,32.10
2019-04-26T23:56:55.724Z,25.93
2019-04-26T23:59:24.776Z,30.00
